sensor_id;sensor_type;location;lat;lon;timestamp;P1;durP1;ratioP1;P2;durP2;ratioP2
19414;SDS011;9843;48.882;12.592;2022-08-01T00:02:12;3.40;;;3.10;;
19414;SDS011;9843;48.882;12.592;2022-08-01T00:04:39;4.13;;;2.73;;
19414;SDS011;9843;48.882;12.592;2022-08-01T00:07:06;5.30;;;3.50;;
19414;SDS011;9843;48.882;12.592;2022-08-01T00:09:34;3.10;;;2.77;;
19414;SDS011;9843;48.882;12.592;2022-08-01T00:12:00;7.47;;;2.93;;
19414;SDS011;9843;48.882;12.592;2022-08-01T00:14:27;5.83;;;3.00;;
19414;SDS011;9843;48.882;12.592;2022-08-01T00:16:54;4.43;;;3.30;;
19414;SDS011;9843;48.882;12.592;2022-08-01T00:19:20;5.23;;;3.43;;
19414;SDS011;9843;48.882;12.592;2022-08-01T00:21:47;4.13;;;3.73;;
19414;SDS011;9843;48.882;12.592;2022-08-01T00:24:14;9.13;;;4.23;;
19414;SDS011;9843;48.882;12.592;2022-08-01T00:26:42;4.07;;;3.70;;
19414;SDS011;9843;48.882;12.592;2022-08-01T00:29:08;5.30;;;4.80;;
19414;SDS011;9843;48.882;12.592;2022-08-01T00:31:35;4.83;;;4.40;;
19414;SDS011;9843;48.882;12.592;2022-08-01T00:34:02;4.93;;;4.40;;
19414;SDS011;9843;48.882;12.592;2022-08-01T00:36:28;6.10;;;5.50;;
19414;SDS011;9843;48.882;12.592;2022-08-01T00:38:55;13.93;;;4.60;;
19414;SDS011;9843;48.882;12.592;2022-08-01T00:41:22;4.83;;;4.33;;
19414;SDS011;9843;48.882;12.592;2022-08-01T00:43:50;7.03;;;5.07;;
19414;SDS011;9843;48.882;12.592;2022-08-01T00:46:16;8.40;;;4.37;;
19414;SDS011;9843;48.882;12.592;2022-08-01T00:48:43;4.93;;;4.53;;
19414;SDS011;9843;48.882;12.592;2022-08-01T00:51:10;5.60;;;5.10;;
19414;SDS011;9843;48.882;12.592;2022-08-01T00:53:38;7.67;;;4.80;;
19414;SDS011;9843;48.882;12.592;2022-08-01T00:56:05;5.10;;;4.70;;
19414;SDS011;9843;48.882;12.592;2022-08-01T00:58:33;7.37;;;4.73;;
19414;SDS011;9843;48.882;12.592;2022-08-01T01:01:01;10.03;;;4.63;;
19414;SDS011;9843;48.882;12.592;2022-08-01T01:03:28;5.53;;;5.03;;
19414;SDS011;9843;48.882;12.592;2022-08-01T01:05:57;4.57;;;4.17;;
19414;SDS011;9843;48.882;12.592;2022-08-01T01:08:35;4.67;;;3.70;;
19414;SDS011;9843;48.882;12.592;2022-08-01T01:11:07;9.73;;;5.20;;
19414;SDS011;9843;48.882;12.592;2022-08-01T01:13:41;9.70;;;6.30;;
19414;SDS011;9843;48.882;12.592;2022-08-01T01:16:14;4.30;;;3.90;;
19414;SDS011;9843;48.882;12.592;2022-08-01T01:18:45;7.53;;;4.53;;
19414;SDS011;9843;48.882;12.592;2022-08-01T01:21:30;4.47;;;4.07;;
19414;SDS011;9843;48.882;12.592;2022-08-01T01:24:07;3.93;;;3.63;;
19414;SDS011;9843;48.882;12.592;2022-08-01T01:26:43;8.43;;;4.97;;
19414;SDS011;9843;48.882;12.592;2022-08-01T01:29:20;5.37;;;4.17;;
19414;SDS011;9843;48.882;12.592;2022-08-01T01:31:52;5.20;;;4.43;;
19414;SDS011;9843;48.882;12.592;2022-08-01T01:34:25;5.47;;;4.83;;
19414;SDS011;9843;48.882;12.592;2022-08-01T01:36:54;6.10;;;3.87;;
19414;SDS011;9843;48.882;12.592;2022-08-01T01:39:24;6.97;;;4.50;;
19414;SDS011;9843;48.882;12.592;2022-08-01T01:41:55;6.70;;;4.97;;
19414;SDS011;9843;48.882;12.592;2022-08-01T01:44:25;7.23;;;5.03;;
19414;SDS011;9843;48.882;12.592;2022-08-01T01:46:52;5.00;;;4.50;;
19414;SDS011;9843;48.882;12.592;2022-08-01T01:49:20;5.60;;;5.10;;
19414;SDS011;9843;48.882;12.592;2022-08-01T01:51:50;5.87;;;4.53;;
19414;SDS011;9843;48.882;12.592;2022-08-01T01:54:19;9.20;;;4.60;;
19414;SDS011;9843;48.882;12.592;2022-08-01T01:56:47;4.97;;;4.57;;
19414;SDS011;9843;48.882;12.592;2022-08-01T01:59:18;4.67;;;4.20;;
19414;SDS011;9843;48.882;12.592;2022-08-01T02:01:49;7.27;;;4.20;;
19414;SDS011;9843;48.882;12.592;2022-08-01T02:04:19;7.03;;;4.90;;
19414;SDS011;9843;48.882;12.592;2022-08-01T02:06:46;4.70;;;4.30;;
19414;SDS011;9843;48.882;12.592;2022-08-01T02:09:16;6.40;;;4.77;;
19414;SDS011;9843;48.882;12.592;2022-08-01T02:11:44;5.97;;;4.67;;
19414;SDS011;9843;48.882;12.592;2022-08-01T02:14:13;4.70;;;4.30;;
19414;SDS011;9843;48.882;12.592;2022-08-01T02:16:42;5.13;;;4.73;;
19414;SDS011;9843;48.882;12.592;2022-08-01T02:19:13;7.33;;;5.03;;
19414;SDS011;9843;48.882;12.592;2022-08-01T02:21:44;4.90;;;4.50;;
19414;SDS011;9843;48.882;12.592;2022-08-01T02:24:14;7.20;;;5.67;;
19414;SDS011;9843;48.882;12.592;2022-08-01T02:26:47;5.33;;;4.77;;
19414;SDS011;9843;48.882;12.592;2022-08-01T02:29:17;6.70;;;4.93;;
19414;SDS011;9843;48.882;12.592;2022-08-01T02:31:48;12.93;;;6.13;;
19414;SDS011;9843;48.882;12.592;2022-08-01T02:34:20;5.20;;;4.80;;
19414;SDS011;9843;48.882;12.592;2022-08-01T02:36:51;8.90;;;5.07;;
19414;SDS011;9843;48.882;12.592;2022-08-01T02:39:20;19.77;;;7.03;;
19414;SDS011;9843;48.882;12.592;2022-08-01T02:41:49;5.50;;;5.00;;
19414;SDS011;9843;48.882;12.592;2022-08-01T02:44:23;4.80;;;4.40;;
19414;SDS011;9843;48.882;12.592;2022-08-01T02:46:54;4.40;;;4.00;;
19414;SDS011;9843;48.882;12.592;2022-08-01T02:49:28;7.63;;;4.93;;
19414;SDS011;9843;48.882;12.592;2022-08-01T02:51:57;5.70;;;4.30;;
19414;SDS011;9843;48.882;12.592;2022-08-01T02:54:26;5.57;;;5.10;;
19414;SDS011;9843;48.882;12.592;2022-08-01T02:56:54;5.77;;;5.33;;
19414;SDS011;9843;48.882;12.592;2022-08-01T02:59:24;5.57;;;4.90;;
19414;SDS011;9843;48.882;12.592;2022-08-01T03:01:55;5.07;;;4.30;;
19414;SDS011;9843;48.882;12.592;2022-08-01T03:04:22;5.87;;;5.33;;
19414;SDS011;9843;48.882;12.592;2022-08-01T03:06:51;5.57;;;5.07;;
19414;SDS011;9843;48.882;12.592;2022-08-01T03:09:22;5.57;;;5.07;;
19414;SDS011;9843;48.882;12.592;2022-08-01T03:11:49;5.23;;;4.83;;
19414;SDS011;9843;48.882;12.592;2022-08-01T03:14:18;4.83;;;4.43;;
19414;SDS011;9843;48.882;12.592;2022-08-01T03:16:47;4.87;;;4.40;;
19414;SDS011;9843;48.882;12.592;2022-08-01T03:19:16;4.43;;;4.03;;
19414;SDS011;9843;48.882;12.592;2022-08-01T03:21:44;5.93;;;4.30;;
19414;SDS011;9843;48.882;12.592;2022-08-01T03:24:14;8.07;;;4.67;;
19414;SDS011;9843;48.882;12.592;2022-08-01T03:26:44;4.43;;;4.07;;
19414;SDS011;9843;48.882;12.592;2022-08-01T03:29:12;5.63;;;4.10;;
19414;SDS011;9843;48.882;12.592;2022-08-01T03:31:43;5.43;;;4.37;;
19414;SDS011;9843;48.882;12.592;2022-08-01T03:34:12;4.13;;;3.83;;
19414;SDS011;9843;48.882;12.592;2022-08-01T03:36:46;6.37;;;4.53;;
19414;SDS011;9843;48.882;12.592;2022-08-01T03:39:15;6.27;;;4.63;;
19414;SDS011;9843;48.882;12.592;2022-08-01T03:41:46;3.27;;;3.07;;
19414;SDS011;9843;48.882;12.592;2022-08-01T03:44:18;6.80;;;4.93;;
19414;SDS011;9843;48.882;12.592;2022-08-01T03:46:50;4.17;;;3.73;;
19414;SDS011;9843;48.882;12.592;2022-08-01T03:49:23;5.57;;;3.93;;
19414;SDS011;9843;48.882;12.592;2022-08-01T03:51:55;5.80;;;3.83;;
19414;SDS011;9843;48.882;12.592;2022-08-01T03:54:24;4.93;;;4.03;;
19414;SDS011;9843;48.882;12.592;2022-08-01T03:56:54;4.23;;;3.40;;
19414;SDS011;9843;48.882;12.592;2022-08-01T03:59:21;8.80;;;3.57;;
19414;SDS011;9843;48.882;12.592;2022-08-01T04:01:48;4.43;;;4.03;;
19414;SDS011;9843;48.882;12.592;2022-08-01T04:04:16;3.03;;;2.83;;
19414;SDS011;9843;48.882;12.592;2022-08-01T04:06:43;4.17;;;3.77;;
19414;SDS011;9843;48.882;12.592;2022-08-01T04:09:10;5.00;;;3.60;;
19414;SDS011;9843;48.882;12.592;2022-08-01T04:11:39;8.70;;;3.67;;
19414;SDS011;9843;48.882;12.592;2022-08-01T04:14:06;5.87;;;3.40;;
19414;SDS011;9843;48.882;12.592;2022-08-01T04:16:33;3.50;;;3.20;;
19414;SDS011;9843;48.882;12.592;2022-08-01T04:19:00;4.43;;;3.60;;
19414;SDS011;9843;48.882;12.592;2022-08-01T04:21:27;3.37;;;3.07;;
19414;SDS011;9843;48.882;12.592;2022-08-01T04:23:59;9.90;;;4.50;;
19414;SDS011;9843;48.882;12.592;2022-08-01T04:26:30;12.43;;;4.67;;
19414;SDS011;9843;48.882;12.592;2022-08-01T04:29:02;14.43;;;4.93;;
19414;SDS011;9843;48.882;12.592;2022-08-01T04:31:31;4.07;;;3.17;;
19414;SDS011;9843;48.882;12.592;2022-08-01T04:33:59;4.40;;;3.87;;
19414;SDS011;9843;48.882;12.592;2022-08-01T04:36:29;4.37;;;3.80;;
19414;SDS011;9843;48.882;12.592;2022-08-01T04:38:59;6.27;;;3.40;;
19414;SDS011;9843;48.882;12.592;2022-08-01T04:41:27;3.87;;;2.87;;
19414;SDS011;9843;48.882;12.592;2022-08-01T04:43:56;3.57;;;3.10;;
19414;SDS011;9843;48.882;12.592;2022-08-01T04:46:25;4.50;;;3.57;;
19414;SDS011;9843;48.882;12.592;2022-08-01T04:48:53;7.43;;;3.30;;
19414;SDS011;9843;48.882;12.592;2022-08-01T04:51:20;4.27;;;3.87;;
19414;SDS011;9843;48.882;12.592;2022-08-01T04:53:47;4.07;;;3.60;;
19414;SDS011;9843;48.882;12.592;2022-08-01T04:56:16;4.00;;;3.70;;
19414;SDS011;9843;48.882;12.592;2022-08-01T04:58:43;3.90;;;3.50;;
19414;SDS011;9843;48.882;12.592;2022-08-01T05:01:10;4.33;;;3.67;;
19414;SDS011;9843;48.882;12.592;2022-08-01T05:03:38;10.03;;;3.83;;
19414;SDS011;9843;48.882;12.592;2022-08-01T05:06:05;5.90;;;3.83;;
19414;SDS011;9843;48.882;12.592;2022-08-01T05:08:32;3.30;;;2.90;;
19414;SDS011;9843;48.882;12.592;2022-08-01T05:10:59;4.30;;;3.93;;
19414;SDS011;9843;48.882;12.592;2022-08-01T05:13:26;4.20;;;3.80;;
19414;SDS011;9843;48.882;12.592;2022-08-01T05:15:52;3.97;;;3.20;;
19414;SDS011;9843;48.882;12.592;2022-08-01T05:18:19;2.63;;;2.43;;
19414;SDS011;9843;48.882;12.592;2022-08-01T05:20:48;5.77;;;3.67;;
19414;SDS011;9843;48.882;12.592;2022-08-01T05:23:14;9.70;;;5.50;;
19414;SDS011;9843;48.882;12.592;2022-08-01T05:25:42;3.70;;;2.60;;
19414;SDS011;9843;48.882;12.592;2022-08-01T05:28:09;9.37;;;4.23;;
19414;SDS011;9843;48.882;12.592;2022-08-01T05:30:36;2.83;;;2.50;;
19414;SDS011;9843;48.882;12.592;2022-08-01T05:33:04;5.17;;;3.00;;
19414;SDS011;9843;48.882;12.592;2022-08-01T05:35:31;10.13;;;3.00;;
19414;SDS011;9843;48.882;12.592;2022-08-01T05:37:59;6.33;;;3.13;;
19414;SDS011;9843;48.882;12.592;2022-08-01T05:40:26;8.13;;;3.17;;
19414;SDS011;9843;48.882;12.592;2022-08-01T05:42:52;5.47;;;3.10;;
19414;SDS011;9843;48.882;12.592;2022-08-01T05:45:19;3.03;;;2.73;;
19414;SDS011;9843;48.882;12.592;2022-08-01T05:47:46;3.63;;;3.00;;
19414;SDS011;9843;48.882;12.592;2022-08-01T05:50:13;4.97;;;3.93;;
19414;SDS011;9843;48.882;12.592;2022-08-01T05:52:39;6.17;;;2.80;;
19414;SDS011;9843;48.882;12.592;2022-08-01T05:55:08;6.43;;;2.87;;
19414;SDS011;9843;48.882;12.592;2022-08-01T05:57:35;5.43;;;3.03;;
19414;SDS011;9843;48.882;12.592;2022-08-01T06:00:02;6.80;;;4.07;;
19414;SDS011;9843;48.882;12.592;2022-08-01T06:02:29;6.07;;;3.23;;
19414;SDS011;9843;48.882;12.592;2022-08-01T06:04:56;4.13;;;1.83;;
19414;SDS011;9843;48.882;12.592;2022-08-01T06:07:22;8.90;;;2.50;;
19414;SDS011;9843;48.882;12.592;2022-08-01T06:09:49;4.43;;;3.17;;
19414;SDS011;9843;48.882;12.592;2022-08-01T06:12:17;3.57;;;2.40;;
19414;SDS011;9843;48.882;12.592;2022-08-01T06:14:44;3.37;;;2.07;;
19414;SDS011;9843;48.882;12.592;2022-08-01T06:17:10;6.90;;;3.00;;
19414;SDS011;9843;48.882;12.592;2022-08-01T06:19:37;3.73;;;2.97;;
19414;SDS011;9843;48.882;12.592;2022-08-01T06:22:04;5.83;;;3.37;;
19414;SDS011;9843;48.882;12.592;2022-08-01T06:24:33;4.43;;;2.50;;
19414;SDS011;9843;48.882;12.592;2022-08-01T06:27:01;3.88;;;1.95;;
19414;SDS011;9843;48.882;12.592;2022-08-01T06:29:30;3.90;;;2.50;;
19414;SDS011;9843;48.882;12.592;2022-08-01T06:31:57;4.33;;;2.03;;
19414;SDS011;9843;48.882;12.592;2022-08-01T06:34:24;7.35;;;2.28;;
19414;SDS011;9843;48.882;12.592;2022-08-01T06:36:51;7.47;;;2.95;;
19414;SDS011;9843;48.882;12.592;2022-08-01T06:39:17;3.28;;;2.65;;
19414;SDS011;9843;48.882;12.592;2022-08-01T06:41:44;3.22;;;2.42;;
19414;SDS011;9843;48.882;12.592;2022-08-01T06:44:11;5.00;;;2.22;;
19414;SDS011;9843;48.882;12.592;2022-08-01T06:46:39;3.08;;;2.22;;
19414;SDS011;9843;48.882;12.592;2022-08-01T06:49:06;2.55;;;1.90;;
19414;SDS011;9843;48.882;12.592;2022-08-01T06:51:32;2.53;;;2.28;;
19414;SDS011;9843;48.882;12.592;2022-08-01T06:53:59;10.00;;;2.95;;
19414;SDS011;9843;48.882;12.592;2022-08-01T06:56:26;6.32;;;2.63;;
19414;SDS011;9843;48.882;12.592;2022-08-01T06:58:52;4.63;;;2.53;;
19414;SDS011;9843;48.882;12.592;2022-08-01T07:01:24;3.72;;;2.42;;
19414;SDS011;9843;48.882;12.592;2022-08-01T07:03:52;8.38;;;2.65;;
19414;SDS011;9843;48.882;12.592;2022-08-01T07:06:19;4.28;;;2.75;;
19414;SDS011;9843;48.882;12.592;2022-08-01T07:08:46;2.55;;;1.80;;
19414;SDS011;9843;48.882;12.592;2022-08-01T07:11:12;4.78;;;1.83;;
19414;SDS011;9843;48.882;12.592;2022-08-01T07:13:39;3.22;;;2.20;;
19414;SDS011;9843;48.882;12.592;2022-08-01T07:16:06;5.00;;;1.98;;
19414;SDS011;9843;48.882;12.592;2022-08-01T07:18:33;2.42;;;2.05;;
19414;SDS011;9843;48.882;12.592;2022-08-01T07:21:01;5.65;;;2.25;;
19414;SDS011;9843;48.882;12.592;2022-08-01T07:23:27;2.83;;;1.40;;
19414;SDS011;9843;48.882;12.592;2022-08-01T07:25:54;4.75;;;1.90;;
19414;SDS011;9843;48.882;12.592;2022-08-01T07:28:21;5.75;;;2.05;;
19414;SDS011;9843;48.882;12.592;2022-08-01T07:30:47;6.85;;;1.60;;
19414;SDS011;9843;48.882;12.592;2022-08-01T07:33:14;1.63;;;1.30;;
19414;SDS011;9843;48.882;12.592;2022-08-01T07:35:41;1.92;;;1.33;;
19414;SDS011;9843;48.882;12.592;2022-08-01T07:38:09;2.63;;;1.40;;
19414;SDS011;9843;48.882;12.592;2022-08-01T07:40:35;2.03;;;1.17;;
19414;SDS011;9843;48.882;12.592;2022-08-01T07:43:02;5.38;;;1.80;;
19414;SDS011;9843;48.882;12.592;2022-08-01T07:45:29;1.50;;;1.33;;
19414;SDS011;9843;48.882;12.592;2022-08-01T07:47:56;3.80;;;1.35;;
19414;SDS011;9843;48.882;12.592;2022-08-01T07:50:28;2.00;;;1.35;;
19414;SDS011;9843;48.882;12.592;2022-08-01T07:52:55;2.05;;;1.27;;
19414;SDS011;9843;48.882;12.592;2022-08-01T07:55:23;6.15;;;1.00;;
19414;SDS011;9843;48.882;12.592;2022-08-01T07:57:50;0.95;;;0.70;;
19414;SDS011;9843;48.882;12.592;2022-08-01T08:00:17;2.97;;;1.10;;
19414;SDS011;9843;48.882;12.592;2022-08-01T08:02:44;3.83;;;1.42;;
19414;SDS011;9843;48.882;12.592;2022-08-01T08:05:11;2.42;;;0.90;;
19414;SDS011;9843;48.882;12.592;2022-08-01T08:07:38;3.47;;;1.15;;
19414;SDS011;9843;48.882;12.592;2022-08-01T08:10:05;1.83;;;0.93;;
19414;SDS011;9843;48.882;12.592;2022-08-01T08:12:33;1.83;;;0.90;;
19414;SDS011;9843;48.882;12.592;2022-08-01T08:15:00;2.63;;;0.60;;
19414;SDS011;9843;48.882;12.592;2022-08-01T08:17:30;2.00;;;1.20;;
19414;SDS011;9843;48.882;12.592;2022-08-01T08:19:58;2.92;;;1.10;;
19414;SDS011;9843;48.882;12.592;2022-08-01T08:22:25;1.45;;;0.90;;
19414;SDS011;9843;48.882;12.592;2022-08-01T08:24:51;2.65;;;0.95;;
19414;SDS011;9843;48.882;12.592;2022-08-01T08:27:18;4.78;;;1.00;;
19414;SDS011;9843;48.882;12.592;2022-08-01T08:29:46;4.32;;;1.08;;
19414;SDS011;9843;48.882;12.592;2022-08-01T08:32:13;1.42;;;0.50;;
19414;SDS011;9843;48.882;12.592;2022-08-01T08:34:40;1.45;;;1.00;;
19414;SDS011;9843;48.882;12.592;2022-08-01T08:37:07;3.17;;;2.03;;
19414;SDS011;9843;48.882;12.592;2022-08-01T08:39:33;2.45;;;1.08;;
19414;SDS011;9843;48.882;12.592;2022-08-01T08:42:00;3.60;;;1.35;;
19414;SDS011;9843;48.882;12.592;2022-08-01T08:44:27;1.65;;;0.80;;
19414;SDS011;9843;48.882;12.592;2022-08-01T08:46:56;5.68;;;1.00;;
19414;SDS011;9843;48.882;12.592;2022-08-01T08:49:25;4.75;;;1.55;;
19414;SDS011;9843;48.882;12.592;2022-08-01T08:51:53;1.20;;;1.08;;
19414;SDS011;9843;48.882;12.592;2022-08-01T08:54:24;2.38;;;0.90;;
19414;SDS011;9843;48.882;12.592;2022-08-01T08:56:52;2.40;;;0.80;;
19414;SDS011;9843;48.882;12.592;2022-08-01T08:59:20;2.65;;;1.00;;
19414;SDS011;9843;48.882;12.592;2022-08-01T09:01:49;3.80;;;1.00;;
19414;SDS011;9843;48.882;12.592;2022-08-01T09:04:17;5.05;;;0.90;;
19414;SDS011;9843;48.882;12.592;2022-08-01T09:06:44;1.77;;;0.80;;
19414;SDS011;9843;48.882;12.592;2022-08-01T09:09:11;2.72;;;0.70;;
19414;SDS011;9843;48.882;12.592;2022-08-01T09:11:37;5.95;;;1.08;;
19414;SDS011;9843;48.882;12.592;2022-08-01T09:14:06;1.30;;;0.73;;
19414;SDS011;9843;48.882;12.592;2022-08-01T09:16:36;2.08;;;1.23;;
19414;SDS011;9843;48.882;12.592;2022-08-01T09:19:06;0.57;;;0.57;;
19414;SDS011;9843;48.882;12.592;2022-08-01T09:21:35;6.40;;;1.17;;
19414;SDS011;9843;48.882;12.592;2022-08-01T09:24:03;3.38;;;0.82;;
19414;SDS011;9843;48.882;12.592;2022-08-01T09:26:31;2.17;;;1.25;;
19414;SDS011;9843;48.882;12.592;2022-08-01T09:29:00;2.95;;;1.17;;
19414;SDS011;9843;48.882;12.592;2022-08-01T09:31:38;2.53;;;1.25;;
19414;SDS011;9843;48.882;12.592;2022-08-01T09:34:05;0.93;;;0.90;;
19414;SDS011;9843;48.882;12.592;2022-08-01T09:36:46;9.18;;;1.40;;
19414;SDS011;9843;48.882;12.592;2022-08-01T09:39:16;1.58;;;0.52;;
19414;SDS011;9843;48.882;12.592;2022-08-01T09:41:45;3.20;;;1.00;;
19414;SDS011;9843;48.882;12.592;2022-08-01T09:44:12;1.38;;;0.60;;
19414;SDS011;9843;48.882;12.592;2022-08-01T09:46:48;6.00;;;0.95;;
19414;SDS011;9843;48.882;12.592;2022-08-01T09:49:16;2.90;;;0.80;;
19414;SDS011;9843;48.882;12.592;2022-08-01T09:51:55;6.38;;;1.33;;
19414;SDS011;9843;48.882;12.592;2022-08-01T09:54:28;4.15;;;0.70;;
19414;SDS011;9843;48.882;12.592;2022-08-01T09:57:06;1.20;;;0.70;;
19414;SDS011;9843;48.882;12.592;2022-08-01T09:59:35;0.75;;;0.52;;
19414;SDS011;9843;48.882;12.592;2022-08-01T10:02:03;1.90;;;0.60;;
19414;SDS011;9843;48.882;12.592;2022-08-01T10:04:30;4.97;;;0.90;;
19414;SDS011;9843;48.882;12.592;2022-08-01T10:07:04;1.70;;;0.85;;
19414;SDS011;9843;48.882;12.592;2022-08-01T10:09:32;1.50;;;0.95;;
19414;SDS011;9843;48.882;12.592;2022-08-01T10:12:01;1.83;;;0.47;;
19414;SDS011;9843;48.882;12.592;2022-08-01T10:14:29;1.45;;;0.77;;
19414;SDS011;9843;48.882;12.592;2022-08-01T10:16:57;2.05;;;0.88;;
19414;SDS011;9843;48.882;12.592;2022-08-01T10:19:26;2.42;;;1.27;;
19414;SDS011;9843;48.882;12.592;2022-08-01T10:21:54;1.63;;;0.80;;
19414;SDS011;9843;48.882;12.592;2022-08-01T10:24:25;2.42;;;1.35;;
19414;SDS011;9843;48.882;12.592;2022-08-01T10:26:55;2.83;;;0.63;;
19414;SDS011;9843;48.882;12.592;2022-08-01T10:29:28;3.92;;;0.88;;
19414;SDS011;9843;48.882;12.592;2022-08-01T10:32:03;1.02;;;0.50;;
19414;SDS011;9843;48.882;12.592;2022-08-01T10:34:31;2.20;;;0.57;;
19414;SDS011;9843;48.882;12.592;2022-08-01T10:36:59;1.80;;;0.65;;
19414;SDS011;9843;48.882;12.592;2022-08-01T10:39:28;2.05;;;0.77;;
19414;SDS011;9843;48.882;12.592;2022-08-01T10:41:56;3.78;;;0.80;;
19414;SDS011;9843;48.882;12.592;2022-08-01T10:44:23;6.20;;;0.75;;
19414;SDS011;9843;48.882;12.592;2022-08-01T10:46:52;2.55;;;0.70;;
19414;SDS011;9843;48.882;12.592;2022-08-01T10:49:24;3.13;;;0.47;;
19414;SDS011;9843;48.882;12.592;2022-08-01T10:51:55;1.70;;;0.80;;
19414;SDS011;9843;48.882;12.592;2022-08-01T10:54:23;3.78;;;0.52;;
19414;SDS011;9843;48.882;12.592;2022-08-01T10:56:52;1.15;;;0.60;;
19414;SDS011;9843;48.882;12.592;2022-08-01T10:59:21;4.55;;;0.47;;
19414;SDS011;9843;48.882;12.592;2022-08-01T11:01:55;2.70;;;0.80;;
19414;SDS011;9843;48.882;12.592;2022-08-01T11:04:32;1.48;;;0.50;;
19414;SDS011;9843;48.882;12.592;2022-08-01T11:07:04;2.42;;;0.65;;
19414;SDS011;9843;48.882;12.592;2022-08-01T11:09:37;1.40;;;0.88;;
19414;SDS011;9843;48.882;12.592;2022-08-01T11:12:09;2.88;;;1.35;;
19414;SDS011;9843;48.882;12.592;2022-08-01T11:17:42;4.25;;;0.40;;
19414;SDS011;9843;48.882;12.592;2022-08-01T11:20:13;0.88;;;0.40;;
19414;SDS011;9843;48.882;12.592;2022-08-01T11:26:07;1.60;;;0.73;;
19414;SDS011;9843;48.882;12.592;2022-08-01T11:28:36;3.95;;;0.70;;
19414;SDS011;9843;48.882;12.592;2022-08-01T11:33:57;6.40;;;0.95;;
19414;SDS011;9843;48.882;12.592;2022-08-01T11:36:24;2.15;;;0.88;;
19414;SDS011;9843;48.882;12.592;2022-08-01T11:39:10;1.58;;;0.75;;
19414;SDS011;9843;48.882;12.592;2022-08-01T11:41:38;3.13;;;0.55;;
19414;SDS011;9843;48.882;12.592;2022-08-01T11:44:07;3.55;;;0.40;;
19414;SDS011;9843;48.882;12.592;2022-08-01T11:46:45;1.00;;;0.73;;
19414;SDS011;9843;48.882;12.592;2022-08-01T11:52:25;1.00;;;0.70;;
19414;SDS011;9843;48.882;12.592;2022-08-01T11:54:53;0.95;;;0.40;;
19414;SDS011;9843;48.882;12.592;2022-08-01T11:57:22;1.27;;;0.40;;
19414;SDS011;9843;48.882;12.592;2022-08-01T11:59:52;0.40;;;0.30;;
19414;SDS011;9843;48.882;12.592;2022-08-01T12:02:21;1.95;;;0.63;;
19414;SDS011;9843;48.882;12.592;2022-08-01T12:04:54;3.13;;;1.67;;
19414;SDS011;9843;48.882;12.592;2022-08-01T12:07:22;1.30;;;0.80;;
19414;SDS011;9843;48.882;12.592;2022-08-01T12:09:56;2.75;;;0.57;;
19414;SDS011;9843;48.882;12.592;2022-08-01T12:12:25;2.80;;;0.73;;
19414;SDS011;9843;48.882;12.592;2022-08-01T12:14:55;4.13;;;0.90;;
19414;SDS011;9843;48.882;12.592;2022-08-01T12:17:32;4.80;;;0.68;;
19414;SDS011;9843;48.882;12.592;2022-08-01T12:20:00;5.47;;;1.15;;
19414;SDS011;9843;48.882;12.592;2022-08-01T12:22:29;3.50;;;0.80;;
19414;SDS011;9843;48.882;12.592;2022-08-01T12:24:56;1.33;;;0.85;;
19414;SDS011;9843;48.882;12.592;2022-08-01T12:27:31;1.23;;;0.77;;
19414;SDS011;9843;48.882;12.592;2022-08-01T12:29:59;1.55;;;0.65;;
19414;SDS011;9843;48.882;12.592;2022-08-01T12:32:27;2.35;;;1.15;;
19414;SDS011;9843;48.882;12.592;2022-08-01T12:34:56;15.35;;;0.90;;
19414;SDS011;9843;48.882;12.592;2022-08-01T12:37:27;0.80;;;0.52;;
19414;SDS011;9843;48.882;12.592;2022-08-01T12:39:53;1.65;;;0.57;;
19414;SDS011;9843;48.882;12.592;2022-08-01T12:42:21;3.33;;;0.68;;
19414;SDS011;9843;48.882;12.592;2022-08-01T12:44:48;2.10;;;0.65;;
19414;SDS011;9843;48.882;12.592;2022-08-01T12:47:18;1.60;;;0.50;;
19414;SDS011;9843;48.882;12.592;2022-08-01T12:49:46;5.47;;;0.73;;
19414;SDS011;9843;48.882;12.592;2022-08-01T12:52:14;0.85;;;0.50;;
19414;SDS011;9843;48.882;12.592;2022-08-01T12:55:01;1.80;;;0.55;;
19414;SDS011;9843;48.882;12.592;2022-08-01T12:57:33;7.13;;;0.98;;
19414;SDS011;9843;48.882;12.592;2022-08-01T13:00:07;1.55;;;0.70;;
19414;SDS011;9843;48.882;12.592;2022-08-01T13:02:43;1.30;;;0.88;;
19414;SDS011;9843;48.882;12.592;2022-08-01T13:05:11;2.65;;;0.93;;
19414;SDS011;9843;48.882;12.592;2022-08-01T13:07:43;0.90;;;0.73;;
19414;SDS011;9843;48.882;12.592;2022-08-01T13:10:12;1.20;;;0.63;;
19414;SDS011;9843;48.882;12.592;2022-08-01T13:12:40;0.57;;;0.45;;
19414;SDS011;9843;48.882;12.592;2022-08-01T13:15:20;2.42;;;1.05;;
19414;SDS011;9843;48.882;12.592;2022-08-01T13:17:50;1.10;;;0.55;;
19414;SDS011;9843;48.882;12.592;2022-08-01T13:20:21;14.52;;;1.20;;
19414;SDS011;9843;48.882;12.592;2022-08-01T13:22:57;4.80;;;0.65;;
19414;SDS011;9843;48.882;12.592;2022-08-01T13:25:45;5.40;;;0.52;;
19414;SDS011;9843;48.882;12.592;2022-08-01T13:28:14;4.25;;;0.60;;
19414;SDS011;9843;48.882;12.592;2022-08-01T13:30:50;1.50;;;0.57;;
19414;SDS011;9843;48.882;12.592;2022-08-01T13:33:21;3.20;;;0.93;;
19414;SDS011;9843;48.882;12.592;2022-08-01T13:35:49;2.47;;;0.57;;
19414;SDS011;9843;48.882;12.592;2022-08-01T13:38:17;0.40;;;0.40;;
19414;SDS011;9843;48.882;12.592;2022-08-01T13:40:44;1.48;;;0.60;;
19414;SDS011;9843;48.882;12.592;2022-08-01T13:43:11;3.72;;;0.82;;
19414;SDS011;9843;48.882;12.592;2022-08-01T13:45:37;1.88;;;0.77;;
19414;SDS011;9843;48.882;12.592;2022-08-01T13:48:05;3.42;;;0.60;;
19414;SDS011;9843;48.882;12.592;2022-08-01T13:50:33;5.55;;;0.95;;
19414;SDS011;9843;48.882;12.592;2022-08-01T13:53:00;5.07;;;1.23;;
19414;SDS011;9843;48.882;12.592;2022-08-01T13:55:27;6.28;;;1.17;;
19414;SDS011;9843;48.882;12.592;2022-08-01T13:57:54;1.70;;;0.63;;
19414;SDS011;9843;48.882;12.592;2022-08-01T14:00:21;1.27;;;0.50;;
19414;SDS011;9843;48.882;12.592;2022-08-01T14:02:47;3.83;;;0.63;;
19414;SDS011;9843;48.882;12.592;2022-08-01T14:05:14;0.57;;;0.47;;
19414;SDS011;9843;48.882;12.592;2022-08-01T14:07:42;2.00;;;0.55;;
19414;SDS011;9843;48.882;12.592;2022-08-01T14:10:09;1.50;;;0.63;;
19414;SDS011;9843;48.882;12.592;2022-08-01T14:12:36;1.25;;;0.75;;
19414;SDS011;9843;48.882;12.592;2022-08-01T14:15:03;2.40;;;0.70;;
19414;SDS011;9843;48.882;12.592;2022-08-01T14:17:31;4.20;;;0.85;;
19414;SDS011;9843;48.882;12.592;2022-08-01T14:19:59;0.77;;;0.50;;
19414;SDS011;9843;48.882;12.592;2022-08-01T14:22:27;3.92;;;0.60;;
19414;SDS011;9843;48.882;12.592;2022-08-01T14:24:55;1.92;;;0.50;;
19414;SDS011;9843;48.882;12.592;2022-08-01T14:27:21;2.58;;;0.68;;
19414;SDS011;9843;48.882;12.592;2022-08-01T14:29:48;0.32;;;0.30;;
19414;SDS011;9843;48.882;12.592;2022-08-01T14:32:15;0.88;;;0.40;;
19414;SDS011;9843;48.882;12.592;2022-08-01T14:34:41;0.88;;;0.40;;
19414;SDS011;9843;48.882;12.592;2022-08-01T14:37:08;2.15;;;0.88;;
19414;SDS011;9843;48.882;12.592;2022-08-01T14:39:35;1.20;;;0.77;;
19414;SDS011;9843;48.882;12.592;2022-08-01T14:42:03;1.65;;;0.57;;
19414;SDS011;9843;48.882;12.592;2022-08-01T14:44:30;1.85;;;0.50;;
19414;SDS011;9843;48.882;12.592;2022-08-01T14:46:57;2.65;;;0.38;;
19414;SDS011;9843;48.882;12.592;2022-08-01T14:49:23;1.13;;;0.50;;
19414;SDS011;9843;48.882;12.592;2022-08-01T14:51:50;4.20;;;0.65;;
19414;SDS011;9843;48.882;12.592;2022-08-01T14:54:17;0.90;;;0.52;;
19414;SDS011;9843;48.882;12.592;2022-08-01T14:56:44;0.85;;;0.60;;
19414;SDS011;9843;48.882;12.592;2022-08-01T14:59:12;4.88;;;0.70;;
19414;SDS011;9843;48.882;12.592;2022-08-01T15:01:39;6.70;;;1.05;;
19414;SDS011;9843;48.882;12.592;2022-08-01T15:04:06;0.85;;;0.50;;
19414;SDS011;9843;48.882;12.592;2022-08-01T15:06:33;5.55;;;1.20;;
19414;SDS011;9843;48.882;12.592;2022-08-01T15:08:59;0.80;;;0.50;;
19414;SDS011;9843;48.882;12.592;2022-08-01T15:11:26;2.10;;;0.70;;